Latest Weather Observations for Avalon

IDV60901

Issued at 6:25 pm EST Thursday 24 April 2014 (issued every 10 minutes, with the page automatically refreshed every 10 minutes)

About weather observations | Map of Melbourne area stations | Latest observations for Melbourne area | Other Formats
Station Details ID: 087113 Name: AVALON AIRPORT Lat: -38.03 Lon: 144.48 Height: 10.6 m
Data from the previous 72 hours. | See also: Recent months at Avalon
Date/Time
EST
Tmp

°C
App
Tmp
°C
Dew
Point
°C
Rel
Hum
%
Delta-T

°C
Wind Press
QNH
hPa
Press
MSL
hPa
Rain
since
9 am
mm
Dir
 
Spd
km/h
Gust
km/h
Spd
kts
Gust
kts
24/06:00pm 12.7 8.0 6.1 64 3.1 S 20 28 11 15 1019.4 1019.4 0.0
24/05:30pm 13.5 8.9 6.6 63 3.3 S 20 26 11 14 1019.0 - 0.0
24/05:00pm 13.9 9.3 6.5 61 3.6 S 20 28 11 15 1018.6 - 0.0
24/04:30pm 14.3 9.7 6.4 59 3.8 S 20 24 11 13 1018.3 - 0.0
24/04:00pm 14.2 8.9 7.0 62 3.5 S 24 32 13 17 1018.1 - 0.0
24/03:30pm 15.9 10.7 7.1 56 4.3 S 24 30 13 16 1017.8 - 0.0
24/03:00pm 16.2 10.1 4.9 47 5.3 SW 26 33 14 18 1017.5 1017.5 0.0
24/02:30pm 17.4 12.5 5.0 44 5.9 SW 20 30 11 16 1017.3 - 0.0
24/02:00pm 17.5 11.6 4.1 41 6.3 WSW 24 33 13 18 1017.2 - 0.0
24/01:30pm 17.0 11.4 3.7 41 6.2 WSW 22 37 12 20 1017.2 - 0.0
24/01:00pm 16.3 9.9 3.0 41 6.1 WSW 26 37 14 20 1017.3 - 0.0
24/12:30pm 16.2 9.7 2.6 40 6.1 WSW 26 37 14 20 1017.5 - 0.0
24/12:00pm 16.5 10.0 4.9 46 5.5 SW 28 37 15 20 1017.6 1017.6 0.0
24/11:30am 15.6 8.6 4.0 46 5.4 W 30 39 16 21 1017.3 - 0.0
24/11:05am 15.8 7.4 3.6 44 5.6 W 37 46 20 25 1016.9 - 0.0
24/11:00am 15.6 8.1 3.7 45 5.5 WSW 32 41 17 22 1016.9 - 0.0
24/10:30am 14.5 7.5 6.1 57 4.0 WSW 32 41 17 22 1016.6 - 0.0
24/10:00am 15.2 9.1 6.7 57 4.1 WSW 28 37 15 20 1016.0 - 0.0
24/09:30am 14.9 10.0 9.9 72 2.6 W 26 39 14 21 1015.7 - 0.0
24/09:00am 13.9 9.7 11.2 84 1.4 W 24 32 13 17 1015.2 1015.2 0.8
24/08:30am 13.3 9.2 11.4 88 1.0 WNW 24 33 13 18 1014.6 - 0.8
24/08:00am 13.1 8.3 11.5 90 0.8 W 28 33 15 18 1013.6 - 0.6
24/07:30am 13.2 7.6 11.4 89 1.0 WNW 32 41 17 22 1012.7 - 0.6
24/07:00am 14.6 9.0 10.2 75 2.3 WNW 30 37 16 20 1011.7 - 0.0
24/06:30am 14.6 10.2 7.6 63 3.5 NNW 20 26 11 14 1011.1 - 0.0
24/06:00am 14.2 9.6 6.6 60 3.7 NNW 20 26 11 14 1010.7 1010.7 0.0
24/05:30am 14.6 9.4 5.7 55 4.2 NW 22 30 12 16 1010.3 - 0.0
24/05:00am 14.3 9.0 4.9 53 4.4 NW 22 28 12 15 1010.2 - 0.0
24/04:30am 14.8 8.6 4.5 50 4.8 NW 26 33 14 18 1009.6 - 0.0
24/04:00am 14.5 8.3 4.5 51 4.6 NNW 26 35 14 19 1009.2 - 0.0
24/03:30am 14.5 8.8 4.8 52 4.5 NNW 24 30 13 16 1009.3 - 0.0
24/03:00am 12.6 9.1 5.3 61 3.4 N 13 19 7 10 1010.1 1010.1 0.0
24/02:30am 12.8 9.3 5.5 61 3.4 N 13 17 7 9 1010.3 - 0.0
24/02:00am 12.6 8.4 5.5 62 3.3 N 17 20 9 11 1010.6 - 0.0
24/01:30am 13.2 8.7 5.9 61 3.4 N 19 26 10 14 1010.7 - 0.0
24/01:00am 13.0 8.3 6.1 63 3.3 N 20 24 11 13 1010.8 - 0.0
24/12:30am 12.6 7.9 6.2 65 3.0 N 20 24 11 13 1011.2 - 0.0
24/12:00am 12.6 8.2 6.4 66 2.9 N 19 22 10 12 1011.5 1011.5 0.0
 
Date/Time
EST
Tmp

°C
App
Tmp
°C
Dew
Point
°C
Rel
Hum
%
Delta-T

°C
Wind Press
QNH
hPa
Press
MSL
hPa
Rain
since
9 am
mm
Dir
 
Spd
km/h
Gust
km/h
Spd
kts
Gust
kts
23/11:30pm 12.2 7.8 6.7 69 2.6 N 19 20 10 11 1011.9 - 0.0
23/11:00pm 12.6 8.3 6.9 68 2.7 N 19 22 10 12 1012.2 - 0.0
23/10:30pm 12.4 8.8 6.9 69 2.6 N 15 19 8 10 1012.5 - 0.0
23/10:00pm 11.7 8.5 6.8 72 2.3 N 13 17 7 9 1012.6 - 0.0
23/09:30pm 13.0 10.0 7.5 69 2.7 N 13 15 7 8 1012.8 - 0.0
23/09:00pm 12.6 10.1 9.6 82 1.5 N 13 15 7 8 1012.9 1012.9 0.0
23/08:30pm 13.1 11.2 10.6 85 1.3 N 11 13 6 7 1013.1 - 0.0
23/08:00pm 13.4 11.1 10.4 82 1.6 N 13 15 7 8 1013.2 - 0.0
23/07:30pm 12.8 11.0 9.6 81 1.6 N 9 13 5 7 1013.3 - 0.0
23/07:00pm 14.2 12.5 9.8 75 2.3 NNE 9 13 5 7 1013.2 - 0.0
23/06:30pm 13.9 12.2 9.9 77 2.1 NE 9 11 5 6 1013.0 - 0.0
23/06:00pm 14.3 12.6 9.7 74 2.4 ENE 9 13 5 7 1013.0 1013.0 0.0
23/05:30pm 15.2 13.2 10.0 71 2.7 NE 11 13 6 7 1013.0 - 0.0
23/05:00pm 17.0 15.1 9.2 60 4.0 N 9 13 5 7 1013.1 - 0.0
23/04:30pm 18.2 14.9 7.9 51 5.3 W 15 19 8 10 1013.2 - 0.0
23/04:00pm 18.3 15.4 8.0 51 5.3 W 13 17 7 9 1013.4 - 0.0
23/03:30pm 18.4 15.5 8.1 51 5.3 W 13 19 7 10 1013.4 - 0.0
23/03:00pm 18.4 16.2 7.8 50 5.4 WNW 9 17 5 9 1013.4 1013.4 0.0
23/02:30pm 18.6 17.0 8.8 53 5.1 NW 7 11 4 6 1013.6 - 0.0
23/02:00pm 17.9 16.2 8.5 54 4.8 W 7 15 4 8 1013.8 - 0.0
23/01:30pm 17.8 15.9 9.2 57 4.5 W 9 13 5 7 1014.2 - 0.0
23/01:00pm 17.3 14.6 9.0 58 4.3 W 13 22 7 12 1015.0 - 0.0
23/12:30pm 17.8 15.5 10.4 62 4.0 W 13 20 7 11 1015.3 - 0.0
23/12:00pm 17.0 14.2 9.9 63 3.7 W 15 20 8 11 1016.0 1016.0 0.0
23/11:30am 16.8 14.8 10.0 64 3.6 NW 11 19 6 10 1016.3 - 0.0
23/11:00am 16.0 14.7 11.2 73 2.6 WNW 9 13 5 7 1016.5 - 0.0
23/10:30am 14.4 12.0 10.0 75 2.3 WNW 13 17 7 9 1016.8 - 0.0
23/10:00am 12.9 10.8 9.9 82 1.5 WNW 11 15 6 8 1017.1 - 0.0
23/09:30am 11.4 7.7 9.3 87 1.1 W 19 22 10 12 1017.4 - 0.0
23/09:00am 10.8 7.9 9.7 93 0.6 W 15 19 8 10 1017.6 1017.6 0.2
23/08:30am 9.4 6.7 8.8 96 0.3 W 13 15 7 8 1017.3 - 0.2
23/08:00am 8.1 7.5 7.5 96 0.3 CALM 0 2 0 1 1016.9 - 0.2
23/07:30am 7.2 6.4 6.5 95 0.3 CALM 0 6 0 3 1016.9 - 0.2
23/07:00am 7.4 4.5 6.7 95 0.3 W 11 13 6 7 1016.6 - 0.2
23/06:30am 8.1 5.4 7.2 94 0.4 W 11 11 6 6 1016.5 - 0.2
23/06:00am 8.4 6.1 7.5 94 0.4 WNW 9 11 5 6 1016.6 1016.6 0.2
23/05:30am 8.6 5.9 7.5 93 0.5 WNW 11 11 6 6 1016.7 - 0.2
23/05:00am 8.6 6.7 7.5 93 0.5 WNW 7 9 4 5 1016.3 - 0.2
23/04:30am 9.0 6.8 7.9 93 0.5 WNW 9 11 5 6 1016.2 - 0.2
23/04:00am 9.4 6.5 8.2 92 0.6 WNW 13 13 7 7 1016.2 - 0.2
23/03:30am 10.3 8.8 9.2 93 0.5 NW 7 9 4 5 1016.2 - 0.2
23/03:00am 10.0 8.4 8.9 93 0.5 WNW 7 9 4 5 1016.5 1016.5 0.2
23/02:30am 10.2 8.2 8.8 91 0.7 WNW 9 11 5 6 1016.8 - 0.2
23/02:00am 11.3 9.5 9.4 88 1.0 WNW 9 9 5 5 1016.9 - 0.2
23/01:30am 12.4 11.1 10.1 86 1.2 WNW 7 9 4 5 1017.0 - 0.2
23/01:00am 12.6 11.4 10.3 86 1.2 NW 7 9 4 5 1017.3 - 0.2
23/12:30am 12.7 11.5 10.4 86 1.2 NW 7 11 4 6 1017.5 - 0.2
23/12:00am 12.7 11.2 10.6 87 1.1 WNW 9 11 5 6 1017.6 1017.6 0.2
 
Date/Time
EST
Tmp

°C
App
Tmp
°C
Dew
Point
°C
Rel
Hum
%
Delta-T

°C
Wind Press
QNH
hPa
Press
MSL
hPa
Rain
since
9 am
mm
Dir
 
Spd
km/h
Gust
km/h
Spd
kts
Gust
kts
22/11:30pm 12.8 11.8 11.0 89 0.9 NW 7 9 4 5 1017.7 - 0.2
22/11:00pm 13.0 12.9 10.9 87 1.1 WNW 2 6 1 3 1017.8 - 0.2
22/10:30pm 13.3 12.4 11.2 87 1.1 NW 7 7 4 4 1018.2 - 0.2
22/10:00pm 13.7 12.2 10.7 82 1.6 WNW 9 11 5 6 1018.2 - 0.2
22/09:30pm 13.7 13.9 10.7 82 1.6 CALM 0 0 0 0 1017.9 - 0.2
22/09:00pm 13.6 13.1 10.9 84 1.4 W 4 7 2 4 1017.8 1017.8 0.2
22/08:30pm 13.5 11.7 10.9 84 1.4 SSW 11 11 6 6 1017.5 - 0.2
22/08:00pm 13.4 11.8 10.2 81 1.7 SSW 9 11 5 6 1017.4 - 0.2
22/07:30pm 14.7 12.5 10.7 77 2.1 SSW 13 17 7 9 1017.2 - 0.2
22/07:00pm 15.1 12.6 10.9 76 2.2 S 15 19 8 10 1016.9 - 0.2
22/06:30pm 15.1 12.2 11.1 77 2.1 S 17 20 9 11 1016.5 - 0.2
22/06:00pm 15.3 13.0 11.7 79 1.9 S 15 19 8 10 1016.2 1016.2 0.2
22/05:30pm 15.2 13.3 11.8 80 1.8 S 13 20 7 11 1015.9 - 0.2
22/05:00pm 15.5 13.3 12.1 80 1.9 SSE 15 22 8 12 1015.4 - 0.2
22/04:30pm 15.7 14.4 12.6 82 1.7 SSE 11 15 6 8 1015.2 - 0.2
22/04:00pm 16.1 14.7 13.4 84 1.5 SSE 13 17 7 9 1014.9 - 0.2
22/03:48pm 16.2 14.5 13.7 85 1.4 SSE 15 20 8 11 1014.8 - 0.2
22/03:30pm 15.8 13.7 13.5 86 1.3 S 17 22 9 12 1014.8 - 0.2
22/03:11pm 16.0 13.4 13.7 86 1.3 S 20 20 11 11 1014.7 - 0.2
22/03:00pm 16.9 16.0 13.8 82 1.8 W 11 15 6 8 1014.7 1014.7 0.2
22/02:30pm 17.1 15.5 13.8 81 1.9 WNW 15 20 8 11 1014.3 - 0.2
22/02:00pm 16.5 13.5 13.8 84 1.5 WNW 22 28 12 15 1014.2 - 0.2
22/01:30pm 16.3 13.9 13.8 85 1.4 WNW 19 26 10 14 1014.1 - 0.2
22/01:00pm 15.8 14.7 14.3 91 0.9 W 13 17 7 9 1014.4 - 0.2
22/12:30pm 16.0 14.8 14.0 88 1.1 WSW 13 17 7 9 1014.8 - 0.2
22/12:00pm 15.5 14.0 13.0 85 1.4 N 13 19 7 10 1014.9 1014.9 0.0
22/11:30am 15.4 13.3 12.3 82 1.7 N 15 17 8 9 1014.9 - 0.0
22/11:00am 15.3 12.3 12.1 81 1.7 N 19 24 10 13 1014.8 - 0.0
22/10:30am 15.0 12.6 12.7 86 1.3 NNE 17 20 9 11 1014.7 - 0.0
22/10:00am 14.5 12.4 12.5 88 1.1 NNE 15 20 8 11 1014.6 - 0.0
22/09:30am 13.7 11.0 11.7 88 1.1 NE 17 20 9 11 1014.6 - 0.0
22/09:00am 13.3 10.5 11.2 87 1.1 NE 17 20 9 11 1014.7 1014.7 10.0
22/08:30am 13.1 9.5 10.5 84 1.4 NNE 20 30 11 16 1014.5 - 10.0
22/08:00am 12.9 7.0 10.3 84 1.3 NNE 32 43 17 23 1014.0 - 10.0
22/07:40am 12.1 7.4 10.5 90 0.8 NNE 26 37 14 20 1013.7 - 10.0
22/07:30am 12.2 6.8 10.8 91 0.7 NNE 30 43 16 23 1013.0 - 9.8
22/07:18am 12.6 9.3 11.0 90 0.8 NNE 19 26 10 14 1014.5 - 8.4
22/07:00am 12.7 10.5 10.9 89 0.9 N 13 15 7 8 1015.1 - 6.0
22/06:30am 12.9 10.9 10.3 84 1.3 W 11 28 6 15 1015.1 - 4.0
22/06:00am 13.1 7.7 9.5 79 1.8 N 28 33 15 18 1014.2 1014.2 2.6
22/05:30am 14.3 7.7 8.7 69 2.8 N 33 43 18 23 1013.8 - 0.4
22/05:00am 14.7 10.6 8.6 67 3.1 N 20 28 11 15 1013.5 - 0.0
22/04:30am 16.0 10.1 7.5 57 4.2 NNW 28 37 15 20 1013.8 - 0.0
22/04:00am 16.6 13.5 7.3 54 4.6 WNW 13 24 7 13 1013.0 - 0.0
22/03:30am 16.3 9.4 7.3 55 4.5 N 33 48 18 26 1011.9 - 0.0
22/03:29am 16.2 9.3 7.4 56 4.4 N 33 48 18 26 1011.9 - 0.0
22/03:00am 15.5 11.9 8.5 63 3.5 NW 17 26 9 14 1012.8 1012.8 0.0
22/02:30am 17.0 13.0 6.5 50 5.2 W 17 37 9 20 1013.6 - 0.0
22/02:00am 16.6 11.2 6.4 51 5.0 N 24 37 13 20 1012.8 - 0.0
22/01:30am 17.1 10.2 6.3 49 5.3 N 32 52 17 28 1012.2 - 0.0
22/01:26am 17.0 10.8 6.2 49 5.3 N 28 50 15 27 1012.3 - 0.0
22/01:04am 16.6 9.6 6.7 52 4.9 NW 33 57 18 31 1013.0 - 0.0
22/01:02am 16.5 8.3 6.6 52 4.9 N 39 57 21 31 1012.2 - 0.0
22/01:00am 16.5 7.5 6.6 52 4.9 N 43 57 23 31 1011.6 - 0.0
22/12:30am 16.7 8.5 6.5 51 5.0 N 39 54 21 29 1011.7 - 0.0
22/12:00am 17.1 8.1 6.3 49 5.3 N 43 57 23 31 1012.2 1012.2 0.0
 
Date/Time
EST
Tmp

°C
App
Tmp
°C
Dew
Point
°C
Rel
Hum
%
Delta-T

°C
Wind Press
QNH
hPa
Press
MSL
hPa
Rain
since
9 am
mm
Dir
 
Spd
km/h
Gust
km/h
Spd
kts
Gust
kts
21/11:30pm 16.9 7.8 6.1 49 5.3 N 43 57 23 31 1012.3 - 0.0
21/11:00pm 17.1 8.0 6.0 48 5.4 N 43 63 23 34 1012.5 - 0.0
21/10:50pm 17.3 8.3 6.2 48 5.4 N 43 63 23 34 1012.5 - 0.0
21/10:30pm 17.1 8.8 6.0 48 5.4 N 39 54 21 29 1012.7 - 0.0
21/10:00pm 17.7 8.7 6.3 47 5.6 N 43 61 23 33 1012.7 - 0.0
21/09:30pm 18.0 8.0 6.2 46 5.8 N 48 69 26 37 1012.5 - 0.0
21/09:01pm 18.0 8.4 6.2 46 5.8 N 46 65 25 35 1012.5 - 0.0
21/09:00pm 18.0 8.4 6.2 46 5.8 N 46 59 25 32 1012.5 1012.5 0.0
21/08:30pm 18.0 8.5 6.5 47 5.7 N 46 65 25 35 1012.5 - 0.0
21/08:18pm 18.2 9.3 6.7 47 5.7 N 43 65 23 35 1012.4 - 0.0
21/08:00pm 17.9 9.8 7.0 49 5.4 N 39 54 21 29 1012.7 - 0.0
21/07:48pm 18.1 9.6 6.9 48 5.6 N 41 59 22 32 1012.6 - 0.0
21/07:30pm 18.1 10.7 6.9 48 5.6 N 35 50 19 27 1012.7 - 0.0
21/07:26pm 18.1 11.3 6.9 48 5.6 N 32 50 17 27 1012.7 - 0.0
21/07:00pm 18.2 10.9 7.0 48 5.6 N 35 50 19 27 1012.5 - 0.0
21/06:30pm 18.4 12.0 6.9 47 5.8 N 30 41 16 22 1012.3 - 0.0

Latest Capital City Observations: Canberra | Sydney | Melbourne | Brisbane | Adelaide | Perth | Hobart | Darwin

Other Formats:

Comma delimited format used in spreadsheet applications
http://www.bom.gov.au/fwo/IDV60901/IDV60901.94854.axf

JavaScript Object Notation format (JSON) in row-major order
http://www.bom.gov.au/fwo/IDV60901/IDV60901.94854.json